^^
Grace C. Lehan Memorial Weather Station Historical Data
Daily Summary for October 22, 2021 Units:  Metric    English   Both
Daily Weekly Monthly Yearly
  High: Low: Average:
Temperature: 23.7 °C 12.2 °C 17.4 °C
Dew Point: 15.7 °C 6.6 °C 12.9 °C
Humidity: 95% 53.2% 76%
Wind Speed: 8km/h 0km/h 1.1km/h
Wind Gust: 20.9km/h - -
Wind- - WNW
Pressure: 1012.8 hPa 1005.6 hPa -
Precipitation: 0.25 mm    
 
 
Tabular Data for October 22, 2021
Time Temperature Dew Point Pressure Wind Wind Speed Wind Gust Humidity Rainfall Rate (Hourly) solar
00:00 15.8 °C 14.7 °C 1008.4 hPa Calm     93% 0 mm 0 W/m2
00:09 15.7 °C 14.6 °C 1008.4 hPa Calm     93% 0 mm 0 W/m2
00:14 15.7 °C 14.6 °C 1008.4 hPa Calm     93% 0 mm 0 W/m2
00:19 15.7 °C 14.6 °C 1008 hPa Calm     93% 0 mm 0 W/m2
00:24 15.7 °C 14.5 °C 1008 hPa Calm     93% 0 mm 0 W/m2
00:29 15.6 °C 14.6 °C 1008 hPa Calm     93.3% 0 mm 0 W/m2
00:34 15.7 °C 14.7 °C 1008 hPa Calm     94% 0 mm 0 W/m2
00:39 15.7 °C 14.8 °C 1008 hPa Calm     94% 0 mm 0 W/m2
00:44 15.7 °C 14.8 °C 1008 hPa Calm     94% 0 mm 0 W/m2
00:49 15.7 °C 14.8 °C 1008 hPa Calm     94% 0 mm 0 W/m2
00:54 15.7 °C 14.7 °C 1007.7 hPa Calm     94% 0 mm 0 W/m2
00:59 15.7 °C 14.7 °C 1007.7 hPa Calm     94% 0 mm 0 W/m2
01:04 15.6 °C 14.7 °C 1007.7 hPa Calm     94% 0 mm 0 W/m2
01:09 15.7 °C 14.7 °C 1007.7 hPa Calm     94% 0 mm 0 W/m2
01:14 15.7 °C 14.7 °C 1007.7 hPa Calm     94% 0 mm 0 W/m2
01:19 15.7 °C 14.7 °C 1007.7 hPa Calm     94% 0 mm 0 W/m2
01:24 15.7 °C 14.7 °C 1007.7 hPa Calm     94% 0 mm 0 W/m2
01:29 15.8 °C 14.8 °C 1007.3 hPa Calm     94% 0 mm 0 W/m2
01:34 15.8 °C 14.8 °C 1007.3 hPa Calm     94% 0 mm 0 W/m2
01:39 15.8 °C 14.9 °C 1007.3 hPa Calm     94% 0 mm 0 W/m2
01:44 15.8 °C 14.9 °C 1007.3 hPa Calm     94% 0 mm 0 W/m2
01:49 15.9 °C 14.9 °C 1007.3 hPa Calm     94% 0 mm 0 W/m2
01:54 15.9 °C 14.9 °C 1007.3 hPa Calm     94% 0 mm 0 W/m2
01:59 15.9 °C 14.9 °C 1007 hPa Calm     94% 0 mm 0 W/m2
02:04 15.9 °C 14.9 °C 1007 hPa Calm     94% 0 mm 0 W/m2
02:09 15.9 °C 14.9 °C 1007 hPa Calm     94% 0 mm 0 W/m2
02:14 15.9 °C 15 °C 1006.7 hPa Calm     94.3% 0 mm 0 W/m2
02:19 15.9 °C 15.2 °C 1006.7 hPa Calm     95% 0 mm 0 W/m2
02:24 15.9 °C 15.2 °C 1006.7 hPa Calm     95% 0 mm 0 W/m2
02:29 16 °C 15.2 °C 1006.7 hPa South 0.2 km/h 3.2 km/h 95% 0 mm 0 W/m2
02:34 16 °C 15.2 °C 1006.7 hPa Calm   3.2 km/h 95% 0 mm 0 W/m2
02:39 16 °C 15.2 °C 1006.7 hPa Calm   1.6 km/h 95% 0 mm 0 W/m2
02:44 16 °C 15.2 °C 1006.7 hPa Calm   1.6 km/h 95% 0 mm 0 W/m2
02:49 16.1 °C 15.3 °C 1006.7 hPa Calm   1.6 km/h 95% 0 mm 0 W/m2
02:54 16.1 °C 15.3 °C 1006.7 hPa Calm   1.6 km/h 95% 0 mm 0 W/m2
02:59 16.1 °C 15.3 °C 1006.7 hPa Calm   1.6 km/h 95% 0 mm 0 W/m2
03:04 16.1 °C 15.3 °C 1006.7 hPa Calm   1.6 km/h 95% 0 mm 0 W/m2
03:09 16.1 °C 15.3 °C 1006.7 hPa Calm     95% 0 mm 0 W/m2
03:14 16.1 °C 15.3 °C 1006.3 hPa Calm     95% 0 mm 0 W/m2
03:19 16 °C 15.2 °C 1006.3 hPa Calm     95% 0 mm 0 W/m2
03:24 16 °C 15.2 °C 1006.3 hPa Calm     95% 0 mm 0 W/m2
03:29 16 °C 15.2 °C 1006.3 hPa Calm     95% 0 mm 0 W/m2
03:34 15.9 °C 15.1 °C 1006 hPa Calm     94.4% 0 mm 0 W/m2
03:39 15.9 °C 15 °C 1006 hPa Calm     94% 0 mm 0 W/m2
03:44 15.9 °C 14.9 °C 1006 hPa Calm     94% 0 mm 0 W/m2
03:49 15.9 °C 14.9 °C 1006 hPa Calm     94% 0 mm 0 W/m2
03:54 15.8 °C 14.9 °C 1006 hPa Calm     94% 0 mm 0 W/m2
03:59 15.8 °C 14.8 °C 1006 hPa Calm     94% 0 mm 0 W/m2
04:00 15.8 °C 14.8 °C 1006 hPa Calm     94% 0 mm 0 W/m2
04:09 15.8 °C 14.8 °C 1006 hPa Calm     94% 0 mm 0 W/m2
04:14 15.8 °C 14.8 °C 1006 hPa South 0.3 km/h 4.8 km/h 94.1% 0 mm 0 W/m2
04:19 15.8 °C 14.8 °C 1005.6 hPa Calm   4.8 km/h 94% 0 mm 0 W/m2
04:24 15.8 °C 14.8 °C 1005.6 hPa Calm   4.8 km/h 94% 0 mm 0 W/m2
04:29 15.8 °C 14.8 °C 1005.6 hPa Calm   4.8 km/h 94% 0 mm 0 W/m2
04:34 15.8 °C 14.8 °C 1006 hPa Calm   4.8 km/h 94% 0 mm 0 W/m2
04:39 15.7 °C 14.8 °C 1006 hPa Calm     94% 0 mm 0 W/m2
04:44 15.7 °C 14.8 °C 1006 hPa Calm     94.1% 0 mm 0 W/m2
04:49 15.8 °C 15 °C 1006 hPa Calm     95% 0 mm 0 W/m2
04:54 15.8 °C 15 °C 1006 hPa Calm     95% 0 mm 0 W/m2
04:59 15.8 °C 14.9 °C 1006.3 hPa Calm     94.5% 0 mm 0 W/m2
05:04 15.8 °C 14.8 °C 1006 hPa Calm     94% 0 mm 0 W/m2
05:09 15.8 °C 14.8 °C 1006.3 hPa Calm     94% 0 mm 0 W/m2
05:14 15.7 °C 14.7 °C 1006.3 hPa Calm     94% 0 mm 0 W/m2
05:19 15.7 °C 14.7 °C 1006 hPa Calm     94% 0 mm 0 W/m2
05:24 15.6 °C 14.7 °C 1006 hPa Calm     94% 0 mm 0 W/m2
05:29 15.6 °C 14.7 °C 1006.3 hPa Calm     94.4% 0 mm 0 W/m2
05:34 15.7 °C 14.9 °C 1006.3 hPa Calm     95% 0 mm 0 W/m2
05:39 15.8 °C 15 °C 1006.3 hPa Calm     95% 0 mm 0 W/m2
05:44 15.8 °C 15 °C 1006.3 hPa Calm     95% 0 mm 0 W/m2
05:49 15.8 °C 14.9 °C 1006.3 hPa Calm     94.2% 0 mm 0 W/m2
05:54 15.8 °C 14.8 °C 1006.3 hPa Calm     94% 0 mm 0 W/m2
05:59 15.7 °C 14.8 °C 1006.3 hPa Calm     94% 0 mm 0 W/m2
06:04 15.7 °C 14.7 °C 1006.3 hPa Calm     94% 0 mm 0 W/m2
06:09 15.6 °C 14.7 °C 1006.3 hPa Calm     94% 0 mm 0 W/m2
06:14 15.6 °C 14.6 °C 1006.3 hPa Calm     94% 0 mm 0 W/m2
06:19 15.5 °C 14.6 °C 1006.3 hPa Calm     94% 0 mm 0 W/m2
06:24 15.4 °C 14.4 °C 1006.3 hPa Calm     94% 0 mm 0 W/m2
06:29 15.4 °C 14.4 °C 1006.3 hPa Calm     94% 0 mm 0 W/m2
06:34 15.3 °C 14.4 °C 1006.3 hPa Calm     94% 0 mm 0 W/m2
06:39 15.3 °C 14.4 °C 1006.3 hPa Calm     94% 0 mm 0 W/m2
06:44 15.3 °C 14.3 °C 1006.3 hPa Calm     94% 0 mm 0 W/m2
06:49 15.3 °C 14.3 °C 1006.7 hPa Calm     94% 0 mm 0 W/m2
06:54 15.3 °C 14.3 °C 1006.7 hPa Calm     94% 0 mm 0 W/m2
06:59 15.3 °C 14.3 °C 1006.7 hPa Calm     94% 0 mm 0 W/m2
07:04 15.2 °C 14.3 °C 1006.7 hPa Calm     94% 0 mm 0 W/m2
07:09 15.2 °C 14.2 °C 1007 hPa Calm     94% 0 mm 0 W/m2
07:14 15.1 °C 14.2 °C 1007 hPa Calm     94% 0 mm 0 W/m2
07:19 15.1 °C 13.9 °C 1007 hPa Calm     93% 0 mm 0 W/m2
07:24 15 °C 13.9 °C 1007 hPa Calm     93% 0 mm 5 W/m2
07:29 14.9 °C 13.8 °C 1007 hPa Calm     93% 0 mm 7 W/m2
07:34 14.8 °C 13.7 °C 1007 hPa Calm     93% 0 mm 7 W/m2
07:39 14.8 °C 13.7 °C 1007.3 hPa Calm     93% 0 mm 11 W/m2
07:44 14.8 °C 13.7 °C 1007.3 hPa Calm     93% 0 mm 11 W/m2
07:49 14.7 °C 13.7 °C 1007.7 hPa Calm     93.3% 0 mm 21 W/m2
07:54 14.7 °C 13.6 °C 1007.7 hPa Calm     93% 0 mm 46 W/m2
07:59 14.7 °C 13.7 °C 1007.7 hPa Calm     93.3% 0 mm 54 W/m2
08:04 14.9 °C 13.9 °C 1007.7 hPa Calm     94% 0 mm 49 W/m2
08:09 14.9 °C 13.9 °C 1007.7 hPa Calm     94% 0 mm 63 W/m2
08:14 15.1 °C 14.1 °C 1008 hPa Calm     94% 0 mm 63 W/m2
08:19 15.2 °C 14.2 °C 1008 hPa Calm     94% 0 mm 51 W/m2
08:24 15.3 °C 14.4 °C 1008 hPa Calm     94% 0 mm 39 W/m2
08:29 15.4 °C 14.4 °C 1008.4 hPa Calm     93.5% 0 mm 37 W/m2
08:34 15.4 °C 14.3 °C 1008.4 hPa SW 0.5 km/h 8 km/h 93% 0 mm 21 W/m2
08:39 15.4 °C 14.1 °C 1008.4 hPa Calm   8 km/h 92% 0 mm 28 W/m2
08:44 15.4 °C 14 °C 1008.4 hPa WSW 0.2 km/h 8 km/h 91.2% 0 mm 28 W/m2
08:49 15.4 °C 14 °C 1008.7 hPa Calm   8 km/h 91% 0 mm 199 W/m2
08:54 15.6 °C 14.2 °C 1008.7 hPa Calm   8 km/h 91% 0 mm 172 W/m2
08:59 15.8 °C 14.3 °C 1008.7 hPa Calm   8 km/h 90.3% 0 mm 197 W/m2
09:04 16.1 °C 14.5 °C 1008.7 hPa Calm   8 km/h 90% 0 mm 279 W/m2
09:09 16.6 °C 14.7 °C 1008.7 hPa WSW 0.8 km/h 9.7 km/h 88.8% 0 mm 292 W/m2
09:14 17.2 °C 15 °C 1008.7 hPa WSW 0.5 km/h 11.3 km/h 87.3% 0 mm 309 W/m2
09:19 17.8 °C 15.2 °C 1009 hPa WSW 1.1 km/h 14.5 km/h 84.9% 0 mm 309 W/m2
09:24 18.3 °C 15.3 °C 1009 hPa Calm   14.5 km/h 82.2% 0 mm 329 W/m2
09:29 18.9 °C 15.4 °C 1009 hPa WSW 0.2 km/h 14.5 km/h 80.4% 0 mm 343 W/m2
09:34 19.3 °C 15.6 °C 1009 hPa West 1.4 km/h 14.5 km/h 78.8% 0 mm 357 W/m2
09:39 19.8 °C 15.5 °C 1009 hPa WSW 0.3 km/h 9.7 km/h 76.5% 0 mm 381 W/m2
09:44 20.2 °C 15.7 °C 1009 hPa WSW 0.2 km/h 9.7 km/h 75.5% 0 mm 385 W/m2
09:49 20.5 °C 15.7 °C 1009 hPa WSW 0.6 km/h 9.7 km/h 74.1% 0 mm 362 W/m2
09:54 20.8 °C 15.7 °C 1009 hPa WSW 0.2 km/h 9.7 km/h 72.4% 0 mm 380 W/m2
09:59 21.1 °C 15.6 °C 1009 hPa Calm   9.7 km/h 71.1% 0 mm 427 W/m2
10:04 21.3 °C 15.5 °C 1009 hPa WSW 1.4 km/h 9.7 km/h 69.7% 0 mm 434 W/m2
10:09 21.4 °C 15.3 °C 1009 hPa WSW 1 km/h 9.7 km/h 68% 0 mm 454 W/m2
10:14 21.4 °C 15.2 °C 1009 hPa WSW 1.3 km/h 11.3 km/h 67.3% 0 mm 478 W/m2
10:19 21.5 °C 15.2 °C 1009.4 hPa West 3.7 km/h 19.3 km/h 67% 0 mm 492 W/m2
10:24 21.6 °C 15 °C 1009.4 hPa West 5.3 km/h 19.3 km/h 66% 0 mm 506 W/m2
10:29 21.7 °C 14.8 °C 1009 hPa WNW 4.2 km/h 19.3 km/h 64.9% 0 mm 510 W/m2
10:34 21.8 °C 14.8 °C 1009.4 hPa WNW 0.8 km/h 19.3 km/h 64.4% 0 mm 533 W/m2
10:39 22.1 °C 15.2 °C 1009.4 hPa WSW 0.6 km/h 6.4 km/h 65% 0 mm 543 W/m2
10:44 22.3 °C 14.8 °C 1009 hPa West 5.5 km/h 14.5 km/h 62.3% 0 mm 543 W/m2
10:49 22.3 °C 14.5 °C 1009.4 hPa West 2.1 km/h 14.5 km/h 61% 0 mm 555 W/m2
10:54 22.4 °C 14.4 °C 1009.4 hPa WSW 3.5 km/h 14.5 km/h 60.6% 0 mm 568 W/m2
10:59 22.5 °C 14.4 °C 1009.4 hPa West 3.7 km/h 14.5 km/h 60.2% 0 mm 575 W/m2
11:04 22.6 °C 14.3 °C 1009.4 hPa WSW 2.4 km/h 16.1 km/h 59.5% 0 mm 577 W/m2
11:09 22.6 °C 14.2 °C 1009.4 hPa WSW 2.7 km/h 16.1 km/h 58.9% 0 mm 563 W/m2
11:14 22.8 °C 14.3 °C 1009.4 hPa West 3.9 km/h 16.1 km/h 58.8% 0 mm 378 W/m2
11:19 22.9 °C 14.2 °C 1009.4 hPa WNW 4.7 km/h 16.1 km/h 57.7% 0 mm 439 W/m2
11:24 23 °C 13.8 °C 1009.4 hPa WNW 1.9 km/h 16.1 km/h 56.2% 0 mm 313 W/m2
11:29 23.1 °C 14.1 °C 1009.4 hPa West 4.8 km/h 16.1 km/h 56.7% 0 mm 322 W/m2
11:34 23.2 °C 14.2 °C 1009.4 hPa WNW 4 km/h 16.1 km/h 56.7% 0 mm 582 W/m2
11:39 23.4 °C 14 °C 1009.4 hPa WNW 4.2 km/h 14.5 km/h 55.5% 0 mm 612 W/m2
11:44 23.7 °C 13.9 °C 1009.4 hPa WNW 2.4 km/h 14.5 km/h 54.3% 0 mm 378 W/m2
11:49 23.6 °C 13.7 °C 1009.4 hPa WNW 2.6 km/h 14.5 km/h 53.5% 0 mm 158 W/m2
11:54 23.2 °C 13.2 °C 1009.7 hPa WNW 2.7 km/h 14.5 km/h 53.2% 0 mm 128 W/m2
11:59 22.7 °C 13.1 °C 1009.4 hPa WNW 2.9 km/h 14.5 km/h 54.5% 0 mm 167 W/m2
12:00 22.5 °C 12.7 °C 1009.4 hPa WNW 1.6 km/h 14.5 km/h 54% 0 mm 167 W/m2
12:09 22.1 °C 12.9 °C 1009.7 hPa NW 1.9 km/h 8 km/h 56% 0 mm 211 W/m2
12:14 21.9 °C 12.7 °C 1009.7 hPa NW 1.1 km/h 8 km/h 55.7% 0 mm 211 W/m2
12:19 21.8 °C 12.9 °C 1009.4 hPa NW 1 km/h 8 km/h 56.6% 0 mm 109 W/m2
12:24 21.7 °C 13.3 °C 1009.4 hPa NW 0.5 km/h 8 km/h 58.5% 0 mm 279 W/m2
12:29 21.7 °C 13.2 °C 1009.4 hPa NW 1 km/h 8 km/h 58.3% 0 mm 258 W/m2
12:34 21.7 °C 13.1 °C 1009.4 hPa WNW 1 km/h 8 km/h 58% 0 mm 195 W/m2
12:39 21.7 °C 13.6 °C 1009.4 hPa WNW 0.6 km/h 4.8 km/h 59.9% 0 mm 220 W/m2
12:44 21.7 °C 13.1 °C 1009.4 hPa West 2.3 km/h 14.5 km/h 58.1% 0 mm 185 W/m2
12:49 21.5 °C 12.6 °C 1009.4 hPa West 2.6 km/h 14.5 km/h 56.6% 0 mm 176 W/m2
12:54 21.4 °C 12.5 °C 1009.4 hPa West 2.1 km/h 14.5 km/h 56.9% 0 mm 207 W/m2
12:59 21.3 °C 12.7 °C 1009.4 hPa WSW 1.4 km/h 14.5 km/h 57.9% 0 mm 200 W/m2
13:04 21.3 °C 12.5 °C 1009.4 hPa West 1.6 km/h 14.5 km/h 57.3% 0 mm 167 W/m2
13:09 21.3 °C 12.9 °C 1009.4 hPa West 1.8 km/h 8 km/h 58.7% 0 mm 137 W/m2
13:14 21.2 °C 12.3 °C 1009.4 hPa West 2.3 km/h 8 km/h 57% 0 mm 107 W/m2
13:19 21.1 °C 12.4 °C 1009.4 hPa West 1.3 km/h 8 km/h 57.6% 0 mm 243 W/m2
13:24 21.1 °C 12.4 °C 1009.4 hPa Calm   8 km/h 57.7% 0 mm 265 W/m2
13:29 21.3 °C 12.9 °C 1009.4 hPa Calm   8 km/h 58.6% 0 mm 462 W/m2
13:34 21.7 °C 12.9 °C 1009.4 hPa WNW 3.5 km/h 9.7 km/h 57.6% 0 mm 146 W/m2
13:39 21.9 °C 12.7 °C 1009.4 hPa WNW 2.4 km/h 9.7 km/h 56% 0 mm 169 W/m2
13:44 21.9 °C 12.7 °C 1009.4 hPa Calm   9.7 km/h 55.9% 0 mm 169 W/m2
13:49 21.8 °C 12.9 °C 1009.4 hPa WNW 0.5 km/h 9.7 km/h 57.2% 0 mm 165 W/m2
13:54 21.8 °C 12.9 °C 1009.4 hPa WNW 2.1 km/h 9.7 km/h 57.1% 0 mm 169 W/m2
13:59 21.7 °C 12.6 °C 1009.4 hPa WNW 1.4 km/h 9.7 km/h 56.2% 0 mm 144 W/m2
14:04 21.6 °C 12.7 °C 1009.4 hPa Calm   9.7 km/h 56.8% 0 mm 149 W/m2
14:09 21.6 °C 12.6 °C 1009.4 hPa Calm   1.6 km/h 56.5% 0 mm 206 W/m2
14:14 21.6 °C 12.8 °C 1009.4 hPa Calm   1.6 km/h 57.2% 0 mm 178 W/m2
14:19 21.6 °C 12.7 °C 1009.4 hPa West 1.6 km/h 8 km/h 57% 0 mm 181 W/m2
14:24 21.7 °C 12.8 °C 1009.4 hPa Calm   8 km/h 57.3% 0 mm 167 W/m2
14:29 21.7 °C 13 °C 1009 hPa Calm   8 km/h 57.7% 0 mm 155 W/m2
14:34 21.7 °C 12.7 °C 1009 hPa West 0.2 km/h 8 km/h 56.5% 0 mm 139 W/m2
14:39 21.6 °C 12.6 °C 1009 hPa WNW 0.8 km/h 11.3 km/h 56.4% 0 mm 144 W/m2
14:44 21.6 °C 12.6 °C 1009 hPa WNW 2.6 km/h 11.3 km/h 56.9% 0 mm 156 W/m2
14:49 21.4 °C 12.6 °C 1009 hPa WNW 3.7 km/h 11.3 km/h 57% 0 mm 169 W/m2
14:54 21.4 °C 12.8 °C 1009 hPa WNW 1 km/h 11.3 km/h 57.9% 0 mm 229 W/m2
14:59 21.4 °C 12.8 °C 1009.4 hPa WNW 1.8 km/h 11.3 km/h 58.1% 0 mm 167 W/m2
15:04 21.5 °C 12.8 °C 1009.4 hPa WNW 0.6 km/h 11.3 km/h 57.6% 0 mm 176 W/m2
15:09 21.6 °C 13.2 °C 1009.4 hPa WNW 1.6 km/h 9.7 km/h 58.9% 0 mm 146 W/m2
15:14 21.6 °C 13.2 °C 1009.4 hPa NW 1.9 km/h 9.7 km/h 58.8% 0 mm 88 W/m2
15:19 21.3 °C 13 °C 1009.4 hPa NW 3.1 km/h 9.7 km/h 59% 0 mm 62 W/m2
15:24 21.1 °C 12.9 °C 1009.4 hPa NW 2.1 km/h 9.7 km/h 59.7% 0 mm 76 W/m2
15:29 20.8 °C 13 °C 1009.4 hPa NW 2.1 km/h 9.7 km/h 60.8% 0 mm 102 W/m2
15:34 20.6 °C 12.9 °C 1009.4 hPa WNW 2.9 km/h 9.7 km/h 61.1% 0 mm 109 W/m2
15:39 20.4 °C 12.8 °C 1009.4 hPa WNW 3.7 km/h 11.3 km/h 61.4% 0 mm 114 W/m2
15:44 20.3 °C 12.8 °C 1009.4 hPa NW 5.1 km/h 11.3 km/h 62% 0 mm 118 W/m2
15:49 20.2 °C 12.7 °C 1009.4 hPa NW 3.2 km/h 11.3 km/h 62.2% 0 mm 120 W/m2
15:54 20.2 °C 12.9 °C 1009.4 hPa NNW 1.9 km/h 11.3 km/h 63% 0 mm 116 W/m2
15:59 20.2 °C 12.9 °C 1009.7 hPa NW 3.2 km/h 11.3 km/h 63.2% 0 mm 114 W/m2
16:00 20.1 °C 12.8 °C 1009.7 hPa WNW 8 km/h 11.3 km/h 63% 0 mm 102 W/m2
16:09 19.9 °C 12.7 °C 1009.4 hPa WNW 3.5 km/h 11.3 km/h 62.9% 0 mm 102 W/m2
16:14 19.8 °C 12.7 °C 1009.4 hPa WNW 2.6 km/h 11.3 km/h 63.3% 0 mm 88 W/m2
16:19 19.8 °C 12.9 °C 1009.4 hPa WNW 3.4 km/h 11.3 km/h 64.7% 0 mm 97 W/m2
16:24 19.8 °C 12.8 °C 1009.4 hPa WNW 3.2 km/h 11.3 km/h 64.1% 0 mm 83 W/m2
16:29 19.7 °C 12.8 °C 1009.7 hPa West 3.1 km/h 11.3 km/h 64.5% 0 mm 77 W/m2
16:34 19.7 °C 12.9 °C 1009.7 hPa WNW 1.9 km/h 11.3 km/h 65% 0 mm 81 W/m2
16:39 19.7 °C 13 °C 1009.7 hPa WNW 0.3 km/h 8 km/h 65.5% 0 mm 77 W/m2
16:44 19.7 °C 13.2 °C 1009.7 hPa WNW 1.3 km/h 8 km/h 66% 0 mm 69 W/m2
16:49 19.7 °C 13.2 °C 1009.7 hPa WNW 0.5 km/h 8 km/h 65.8% 0 mm 62 W/m2
16:54 19.7 °C 13.1 °C 1009.7 hPa Calm   8 km/h 65.8% 0 mm 54 W/m2
16:59 19.7 °C 13 °C 1010 hPa WNW 2.7 km/h 9.7 km/h 65.5% 0 mm 44 W/m2
17:04 19.6 °C 12.9 °C 1010 hPa WNW 5.5 km/h 16.1 km/h 65.7% 0 mm 40 W/m2
17:09 19.4 °C 13.1 °C 1010 hPa WNW 2.1 km/h 16.1 km/h 66.6% 0 mm 35 W/m2
17:14 19.3 °C 12.9 °C 1010 hPa WNW 2.6 km/h 16.1 km/h 66.7% 0 mm 35 W/m2
17:19 19.2 °C 12.9 °C 1010 hPa NNW 2.7 km/h 16.1 km/h 67% 0 mm 32 W/m2
17:24 19.1 °C 12.8 °C 1010 hPa NNW 1.3 km/h 16.1 km/h 67.2% 0 mm 25 W/m2
17:29 18.9 °C 12.7 °C 1010 hPa North 1.9 km/h 16.1 km/h 67% 0.25 mm 18 W/m2
17:34 18.8 °C 12.6 °C 1010 hPa North 1.9 km/h 16.1 km/h 67% 0.25 mm 16 W/m2
17:39 18.7 °C 12.7 °C 1010.4 hPa North 1.3 km/h 8 km/h 67.7% 0.25 mm 12 W/m2
17:44 18.6 °C 12.6 °C 1010.4 hPa Calm   8 km/h 67.7% 0.25 mm 9 W/m2
17:49 18.5 °C 12.4 °C 1010.4 hPa West 1.6 km/h 8 km/h 67.8% 0.25 mm 7 W/m2
17:54 18.4 °C 12.4 °C 1010.4 hPa West 1 km/h 8 km/h 67.8% 0.25 mm 5 W/m2
17:59 18.3 °C 12.3 °C 1010.4 hPa Calm   8 km/h 68% 0.25 mm 0 W/m2
18:04 18.2 °C 12.3 °C 1010.4 hPa Calm   8 km/h 68.1% 0.25 mm 0 W/m2
18:09 18.1 °C 12.4 °C 1010.4 hPa Calm     69% 0.25 mm 0 W/m2
18:14 18.1 °C 12.3 °C 1010.4 hPa Calm     69% 0.25 mm 0 W/m2
18:19 17.9 °C 12.4 °C 1010.7 hPa Calm     69.8% 0.25 mm 0 W/m2
18:24 17.8 °C 12.2 °C 1010.7 hPa Calm     69.5% 0.25 mm 0 W/m2
18:29 17.8 °C 12.2 °C 1010.7 hPa Calm     70% 0.25 mm 0 W/m2
18:34 17.7 °C 12.1 °C 1010.7 hPa Calm     69.8% 0.25 mm 0 W/m2
18:39 17.6 °C 12 °C 1010.7 hPa WNW 1 km/h 11.3 km/h 70% 0 mm 0 W/m2
18:44 17.4 °C 11.8 °C 1011.1 hPa WNW 1.9 km/h 11.3 km/h 69.5% 0 mm 0 W/m2
18:49 17.3 °C 11.7 °C 1011.1 hPa WNW 0.5 km/h 11.3 km/h 69.1% 0 mm 0 W/m2
18:54 17.3 °C 11.8 °C 1011.1 hPa Calm   11.3 km/h 70% 0 mm 0 W/m2
18:59 17.2 °C 11.7 °C 1011.1 hPa Calm   11.3 km/h 70% 0 mm 0 W/m2
19:04 17.2 °C 11.5 °C 1011.1 hPa Calm   11.3 km/h 69.5% 0 mm 0 W/m2
19:09 17.1 °C 11.4 °C 1011.1 hPa WNW 2.4 km/h 14.5 km/h 69.2% 0 mm 0 W/m2
19:14 17 °C 11.2 °C 1011.1 hPa NNW 1.6 km/h 14.5 km/h 68.7% 0 mm 0 W/m2
19:19 16.9 °C 10.9 °C 1011.4 hPa WNW 4.8 km/h 19.3 km/h 67.9% 0 mm 0 W/m2
19:24 16.8 °C 10.7 °C 1011.4 hPa NW 3.9 km/h 19.3 km/h 67.5% 0 mm 0 W/m2
19:29 16.7 °C 10.8 °C 1011.4 hPa NW 3.2 km/h 19.3 km/h 68% 0 mm 0 W/m2
19:34 16.6 °C 10.4 °C 1011.4 hPa NW 7.2 km/h 19.3 km/h 67.2% 0 mm 0 W/m2
19:39 16.4 °C 10.3 °C 1011.7 hPa WNW 4.2 km/h 16.1 km/h 67.1% 0 mm 0 W/m2
19:44 16.3 °C 10.4 °C 1011.7 hPa WNW 0.8 km/h 16.1 km/h 68% 0 mm 0 W/m2
19:49 16.2 °C 10.3 °C 1011.7 hPa Calm   16.1 km/h 68% 0 mm 0 W/m2
19:54 16.2 °C 10.3 °C 1011.7 hPa Calm   16.1 km/h 68% 0 mm 0 W/m2
19:59 16.1 °C 10.2 °C 1012.1 hPa NW 2.3 km/h 16.1 km/h 68% 0 mm 0 W/m2
20:00 16.1 °C 10.2 °C 1012.1 hPa NW 1.6 km/h 16.1 km/h 68% 0 mm 0 W/m2
20:09 16 °C 10.1 °C 1012.1 hPa NW 1 km/h 11.3 km/h 68% 0 mm 0 W/m2
20:14 15.9 °C 9.8 °C 1012.1 hPa NW 2.3 km/h 11.3 km/h 67.1% 0 mm 0 W/m2
20:19 15.8 °C 9.7 °C 1012.1 hPa NW 4.2 km/h 12.9 km/h 67% 0 mm 0 W/m2
20:24 15.7 °C 9.7 °C 1012.1 hPa NW 5.6 km/h 20.9 km/h 67% 0 mm 0 W/m2
20:29 15.6 °C 9.5 °C 1012.1 hPa NNW 3.2 km/h 20.9 km/h 67% 0 mm 0 W/m2
20:34 15.5 °C 9.5 °C 1012.1 hPa NNW 3.1 km/h 20.9 km/h 67.5% 0 mm 0 W/m2
20:39 15.4 °C 9.4 °C 1012.1 hPa NNW 0.5 km/h 8 km/h 67.5% 0 mm 0 W/m2
20:44 15.3 °C 9.5 °C 1012.1 hPa NNW 0.6 km/h 8 km/h 68.1% 0 mm 0 W/m2
20:49 15.3 °C 9.6 °C 1012.1 hPa Calm   8 km/h 69% 0 mm 0 W/m2
20:54 15.2 °C 9.5 °C 1012.1 hPa NNW 0.2 km/h 8 km/h 69% 0 mm 0 W/m2
20:59 15.1 °C 9.4 °C 1012.1 hPa Calm   8 km/h 69% 0 mm 0 W/m2
21:04 14.9 °C 9.3 °C 1012.1 hPa NNW 2.9 km/h 9.7 km/h 69% 0 mm 0 W/m2
21:09 14.8 °C 9.3 °C 1012.1 hPa NNW 0.6 km/h 9.7 km/h 69.8% 0 mm 0 W/m2
21:14 14.7 °C 9.3 °C 1012.4 hPa Calm   9.7 km/h 70.1% 0 mm 0 W/m2
21:19 14.6 °C 9.4 °C 1012.1 hPa Calm   9.7 km/h 71% 0 mm 0 W/m2
21:24 14.6 °C 9.3 °C 1012.1 hPa NNW 0.5 km/h 9.7 km/h 71% 0 mm 0 W/m2
21:29 14.4 °C 9.1 °C 1012.1 hPa NNW 4 km/h 9.7 km/h 70.1% 0 mm 0 W/m2
21:34 14.3 °C 8.9 °C 1012.4 hPa NNW 3.1 km/h 9.7 km/h 70% 0 mm 0 W/m2
21:39 14.3 °C 8.9 °C 1012.4 hPa NW 2.6 km/h 9.7 km/h 70% 0 mm 0 W/m2
21:44 14.2 °C 9 °C 1012.4 hPa WNW 3.2 km/h 9.7 km/h 71% 0 mm 0 W/m2
21:49 14.1 °C 8.9 °C 1012.8 hPa Calm   9.7 km/h 71% 0 mm 0 W/m2
21:54 14.1 °C 8.8 °C 1012.8 hPa NW 0.6 km/h 9.7 km/h 70.6% 0 mm 0 W/m2
21:59 14 °C 8.7 °C 1012.8 hPa NW 0.5 km/h 9.7 km/h 70.2% 0 mm 0 W/m2
22:04 13.9 °C 8.6 °C 1012.8 hPa Calm   9.7 km/h 70.3% 0 mm 0 W/m2
22:09 13.8 °C 8.5 °C 1012.8 hPa Calm   1.6 km/h 70% 0 mm 0 W/m2
22:14 13.8 °C 8.4 °C 1012.8 hPa Calm   1.6 km/h 70% 0 mm 0 W/m2
22:19 13.7 °C 8.5 °C 1012.8 hPa Calm   1.6 km/h 70.8% 0 mm 0 W/m2
22:24 13.6 °C 8.4 °C 1012.8 hPa NW 0.8 km/h 9.7 km/h 70.9% 0 mm 0 W/m2
22:29 13.5 °C 8.1 °C 1012.8 hPa NNW 1.3 km/h 9.7 km/h 70% 0 mm 0 W/m2
22:34 13.4 °C 8.1 °C 1012.8 hPa NW 0.6 km/h 9.7 km/h 70% 0 mm 0 W/m2
22:39 13.3 °C 7.9 °C 1012.8 hPa NW 2.6 km/h 8 km/h 70% 0 mm 0 W/m2
22:44 13.2 °C 7.9 °C 1012.8 hPa NW 1.3 km/h 8 km/h 70% 0 mm 0 W/m2
22:49 13.2 °C 7.8 °C 1012.8 hPa Calm   8 km/h 70% 0 mm 0 W/m2
22:54 13.1 °C 7.9 °C 1012.8 hPa NNW 1 km/h 8 km/h 70.8% 0 mm 0 W/m2
22:59 12.9 °C 7.8 °C 1012.8 hPa NNW 2.9 km/h 9.7 km/h 71% 0 mm 0 W/m2
23:04 12.8 °C 7.6 °C 1012.8 hPa NNW 0.2 km/h 9.7 km/h 70.4% 0 mm 0 W/m2
23:09 12.7 °C 7.3 °C 1012.8 hPa NNW 5.3 km/h 16.1 km/h 69.4% 0 mm 0 W/m2
23:14 12.7 °C 7.1 °C 1012.8 hPa NW 1.8 km/h 16.1 km/h 68.6% 0 mm 0 W/m2
23:19 12.6 °C 6.8 °C 1012.8 hPa NW 1.1 km/h 16.1 km/h 68% 0 mm 0 W/m2
23:24 12.6 °C 6.8 °C 1012.8 hPa North 1.9 km/h 16.1 km/h 68% 0 mm 0 W/m2
23:29 12.5 °C 6.8 °C 1012.8 hPa North 2.1 km/h 16.1 km/h 68% 0 mm 0 W/m2
23:34 12.4 °C 6.7 °C 1012.8 hPa NNW 1.9 km/h 16.1 km/h 67.9% 0 mm 0 W/m2
23:39 12.4 °C 6.6 °C 1012.8 hPa Calm   8 km/h 67.7% 0 mm 0 W/m2
23:44 12.3 °C 6.6 °C 1012.8 hPa Calm   8 km/h 68% 0 mm 0 W/m2
23:49 12.3 °C 6.7 °C 1012.4 hPa Calm   8 km/h 68.7% 0 mm 0 W/m2
23:54 12.2 °C 6.7 °C 1012.4 hPa Calm   8 km/h 69% 0 mm 0 W/m2
23:59 12.2 °C 6.7 °C 1012.4 hPa Calm   8 km/h 69.2% 0 mm 0 W/m2
Hartford County Weather
Compliments of Weather Underground - 4 mb